Latest Weather Observations for Rockhampton

IDQ60801

Issued at 5:22 pm EST Tuesday 17 May 2022 (issued every 10 minutes, with the page automatically refreshed every 10 minutes)

About weather observations | Map of weather stations | Latest weather observations for QLD | Other Formats
Station Details ID: 039083 Name: ROCKHAMPTON AERO Lat: -23.38 Lon: 150.48 Height: 10.4 m
Data from the previous 72 hours. | See also: Recent months at Rockhampton
Date/Time
EST
Temp
°C
App
Temp
°C
Dew
Point
°C
Rel
Hum
%
Delta-T
°C
Wind Press
QNH
hPa
Press
MSL
hPa
Rain since
9am
mm
Dir  Spd
km/h
Gust
km/h
Spd
kts
Gust
kts
17/05:00pm 26.5 28.4 18.6 62 5.0 E 6 9 3 5 1014.0 1013.9 0.0
17/04:30pm 27.6 28.2 17.7 54 6.3 ENE 11 15 6 8 1013.4 1013.3 0.0
17/04:00pm 28.1 29.0 18.5 56 6.1 E 11 19 6 10 1013.3 1013.2 0.0
17/03:30pm 28.9 29.9 18.7 54 6.6 ESE 11 17 6 9 1013.2 1013.1 0.0
17/03:00pm 29.0 29.0 17.2 49 7.4 E 13 20 7 11 1013.1 1013.0 0.0
17/02:30pm 29.0 28.3 16.5 46 7.8 ESE 15 20 8 11 1013.1 1013.0 0.0
17/02:00pm 28.7 29.1 17.2 49 7.2 E 11 17 6 9 1013.3 1013.2 0.0
17/01:30pm 28.6 29.2 17.8 52 6.9 E 11 17 6 9 1013.7 1013.6 0.0
17/01:00pm 28.0 27.6 17.2 51 6.8 ESE 15 20 8 11 1014.0 1013.9 0.0
17/12:30pm 27.9 29.0 18.9 58 5.8 E 11 19 6 10 1014.5 1014.4 0.0
17/12:00pm 27.8 29.6 19.6 61 5.3 SE 9 15 5 8 1014.9 1014.8 0.0
17/11:30am 27.0 29.0 19.9 65 4.6 SE 9 19 5 10 1015.3 1015.2 0.0
17/11:00am 26.1 28.8 21.3 75 3.2 SE 9 15 5 8 1015.8 1015.7 0.0
17/10:30am 24.6 27.0 20.9 80 2.4 SE 9 11 5 6 1016.3 1016.2 0.0
17/10:00am 24.1 27.8 21.4 85 1.8 SSE 4 11 2 6 1016.6 1016.5 0.0
17/09:30am 22.4 25.0 20.5 89 1.2 SSE 7 11 4 6 1016.6 1016.5 0.0
17/09:09am 22.2 25.1 20.7 91 1.0 SSE 6 9 3 5 1016.4 1016.3 0.0
17/09:00am 21.9 24.6 20.7 93 0.8 SSE 7 11 4 6 1016.4 1016.3 -
17/08:30am 21.2 24.0 20.5 96 0.5 S 6 9 3 5 1016.4 1016.3 -
17/08:00am 20.9 24.8 20.4 97 0.3 CALM 0 0 0 0 1015.9 1015.8 -
17/07:30am 20.8 24.3 20.3 97 0.3 SSW 2 9 1 5 1015.5 1015.4 -
17/07:15am 20.7 23.2 20.2 97 0.3 SSW 7 13 4 7 1015.4 1015.3 -
17/07:11am 20.7 23.4 20.2 97 0.3 S 6 13 3 7 1015.3 1015.2 -
17/07:00am 20.6 23.1 19.9 96 0.4 S 6 9 3 5 1015.2 1015.1 -
17/06:56am 20.6 23.1 19.9 96 0.4 S 6 7 3 4 1015.2 1015.1 -
17/06:40am 20.6 24.3 19.9 96 0.4 CALM 0 6 0 3 1015.0 1014.9 -
17/06:30am 20.4 24.0 19.7 96 0.4 CALM 0 0 0 0 1014.9 1014.8 -
17/06:07am 19.8 22.6 18.8 94 0.6 SSE 2 7 1 4 1014.7 1014.6 -
17/06:00am 19.8 23.0 18.8 94 0.6 CALM 0 0 0 0 1014.6 1014.5 -
17/05:51am 20.2 23.6 19.4 95 0.5 CALM 0 0 0 0 1014.5 1014.4 -
17/05:48am 20.2 23.6 19.4 95 0.5 CALM 0 0 0 0 1014.5 1014.4 -
17/05:30am 20.4 23.9 19.6 95 0.5 CALM 0 0 0 0 1014.2 1014.1 -
17/05:00am 20.8 24.4 19.8 94 0.6 CALM 0 0 0 0 1014.0 1013.9 -
17/04:53am 20.8 24.0 19.8 94 0.6 ESE 2 6 1 3 1013.9 1013.8 -
17/04:38am 20.9 23.4 19.9 94 0.6 SE 6 7 3 4 1013.7 1013.6 -
17/04:30am 21.0 24.3 20.0 94 0.6 SE 2 7 1 4 1013.7 1013.6 -
17/04:00am 21.5 24.3 20.5 94 0.6 SSE 6 9 3 5 1013.6 1013.5 -
17/03:30am 21.5 24.4 20.7 95 0.5 SSE 6 9 3 5 1013.5 1013.4 -
17/03:00am 21.2 24.1 20.7 97 0.3 SSE 6 11 3 6 1013.4 1013.9 0.0
17/02:57am 21.2 23.9 20.7 97 0.3 S 7 11 4 6 1013.4 1013.9 -
17/02:30am 20.9 24.8 20.4 97 0.3 CALM 0 0 0 0 1013.4 1013.9 -
17/02:20am 20.9 24.8 20.4 97 0.3 CALM 0 0 0 0 1013.4 1013.9 -
17/02:00am 20.9 24.8 20.4 97 0.3 CALM 0 0 0 0 1013.7 1014.2 -
17/01:30am 21.0 25.0 20.5 97 0.3 CALM 0 0 0 0 1013.9 1014.4 -
17/01:00am 20.9 24.3 20.2 96 0.4 S 2 7 1 4 1014.1 1014.6 -
17/12:30am 20.0 23.3 19.2 95 0.5 CALM 0 0 0 0 1014.2 1014.7 -
17/12:17am 19.6 22.7 18.6 94 0.6 CALM 0 0 0 0 1014.2 1014.7 -
17/12:10am 19.6 22.7 18.6 94 0.6 CALM 0 0 0 0 1014.2 1014.7 -
17/12:08am 19.6 22.7 18.6 94 0.6 CALM 0 0 0 0 1014.2 1014.7 -
17/12:00am 19.8 23.0 18.8 94 0.6 CALM 0 0 0 0 1014.2 1014.7 -
 
Date/Time
EST
Temp
°C
App
Temp
°C
Dew
Point
°C
Rel
Hum
%
Delta-T
°C
Wind Press
QNH
hPa
Press
MSL
hPa
Rain since
9am
mm
Dir  Spd
km/h
Gust
km/h
Spd
kts
Gust
kts
16/11:30pm 19.9 23.0 18.7 93 0.7 CALM 0 0 0 0 1014.2 1014.7 -
16/11:00pm 20.3 23.6 19.1 93 0.8 CALM 0 0 0 0 1014.2 1014.7 -
16/10:30pm 20.4 23.7 19.1 92 0.8 CALM 0 0 0 0 1014.2 1014.7 -
16/10:00pm 20.9 24.3 19.4 91 1.0 CALM 0 0 0 0 1014.3 1014.8 -
16/09:30pm 21.1 24.5 19.4 90 1.1 CALM 0 0 0 0 1014.2 1014.7 -
16/09:00pm 21.6 25.3 19.9 90 1.1 CALM 0 0 0 0 1014.2 1014.7 0.2
16/08:30pm 21.9 24.2 19.8 88 1.3 SW 7 7 4 4 1014.0 1014.5 -
16/08:00pm 22.4 25.2 19.6 84 1.8 NNE 4 11 2 6 1013.6 1014.1 -
16/07:30pm 22.8 26.4 19.8 83 1.9 CALM 0 0 0 0 1013.3 1013.8 -
16/07:00pm 23.3 27.0 19.9 81 2.2 CALM 0 0 0 0 1013.0 1013.5 -
16/06:30pm 24.2 27.9 19.9 77 2.8 CALM 0 0 0 0 1012.7 1013.2 -
16/06:00pm 24.4 27.6 19.7 75 3.0 NE 2 6 1 3 1012.4 1012.9 -
16/05:30pm 25.0 27.5 20.3 75 3.1 ESE 7 9 4 5 1012.2 1012.7 -
16/05:00pm 26.1 28.2 20.2 70 3.8 SE 9 15 5 8 1011.9 1012.4 -
16/04:30pm 26.9 29.0 19.3 63 4.9 ESE 7 11 4 6 1011.6 1012.1 -
16/04:00pm 26.9 29.1 19.5 64 4.8 SE 7 11 4 6 1011.5 1012.0 -
16/03:30pm 26.5 27.8 19.4 65 4.6 ESE 11 15 6 8 1011.6 1012.1 -
16/03:00pm 27.0 28.4 19.6 64 4.8 ESE 11 17 6 9 1011.5 1012.0 -
16/12:30pm 26.7 29.1 20.8 70 3.9 E 9 17 5 9 1012.7 1012.7 0.0
16/12:00pm 26.7 28.1 20.3 68 4.2 ESE 13 19 7 10 1013.0 1013.0 0.0
16/11:30am 26.2 28.1 19.8 68 4.2 ESE 9 15 5 8 1013.3 1013.3 0.0
16/11:00am 25.7 27.9 20.3 72 3.5 SE 9 13 5 7 1013.7 1013.7 0.0
16/10:30am 24.9 26.6 20.2 75 3.1 SE 11 15 6 8 1014.0 1014.0 0.0
16/10:00am 24.8 27.2 20.9 79 2.6 SE 9 13 5 7 1014.1 1014.1 0.0
16/09:30am 24.0 26.4 20.9 83 2.0 SSW 9 11 5 6 1014.1 1014.1 0.0
16/09:00am 23.3 26.3 21.2 88 1.4 SSW 7 9 4 5 1013.9 1013.9 0.2
16/08:30am 22.2 25.0 20.5 90 1.1 SSW 6 7 3 4 1013.6 1013.6 0.2
16/08:00am 21.4 23.9 20.2 93 0.8 SSW 7 7 4 4 1013.3 1013.3 0.2
16/07:30am 21.0 23.7 20.2 95 0.5 SW 6 7 3 4 1012.9 1012.9 0.2
16/07:08am 20.3 23.8 19.6 96 0.4 CALM 0 0 0 0 1012.6 1012.6 0.2
16/07:00am 20.1 23.5 19.4 96 0.4 CALM 0 0 0 0 1012.5 1012.5 0.2
16/06:32am 20.4 24.0 19.7 96 0.4 CALM 0 2 0 1 1012.1 1012.1 0.2
16/06:30am 20.5 24.1 19.8 96 0.4 CALM 0 0 0 0 1012.1 1012.1 0.2
16/06:21am 20.3 23.4 19.6 96 0.4 SSW 2 7 1 4 1011.9 1011.9 0.2
16/06:00am 20.2 23.7 19.5 96 0.4 CALM 0 0 0 0 1011.6 1011.6 0.2
16/05:37am 20.3 23.8 19.6 96 0.4 CALM 0 0 0 0 1011.4 1011.4 0.2
16/05:30am 20.3 23.8 19.6 96 0.4 CALM 0 0 0 0 1011.5 1011.5 0.2
16/05:26am 20.3 23.8 19.6 96 0.4 CALM 0 0 0 0 1011.5 1011.5 0.2
16/05:11am 20.2 23.7 19.5 96 0.4 CALM 0 0 0 0 1011.4 1011.4 0.2
16/05:00am 20.4 24.0 19.7 96 0.4 CALM 0 0 0 0 1011.3 1011.3 0.2
16/04:35am 20.4 24.0 19.7 96 0.4 CALM 0 0 0 0 1011.2 1011.2 0.2
16/04:30am 20.5 24.1 19.8 96 0.4 CALM 0 0 0 0 1011.3 1011.3 0.2
16/04:24am 20.4 24.0 19.7 96 0.4 CALM 0 0 0 0 1011.3 1011.3 0.2
16/04:23am 20.4 24.0 19.7 96 0.4 CALM 0 0 0 0 1011.3 1011.3 0.2
16/04:01am 20.3 23.8 19.6 96 0.4 CALM 0 0 0 0 1011.2 1011.2 0.2
16/04:00am 20.3 23.8 19.6 96 0.4 CALM 0 0 0 0 1011.2 1011.2 0.2
16/03:30am 20.0 23.4 19.3 96 0.4 CALM 0 0 0 0 1011.3 1011.3 0.2
16/03:00am 20.5 23.4 19.8 96 0.4 SSW 4 7 2 4 1011.2 1011.2 0.2
16/02:30am 20.6 22.9 19.9 96 0.4 SSW 7 9 4 5 1011.4 1011.4 0.2
16/02:07am 20.3 22.5 19.5 95 0.5 SSW 7 9 4 5 1011.6 1011.6 0.2
16/02:00am 20.0 21.9 19.0 94 0.6 SW 7 9 4 5 1011.6 1011.6 0.2
16/01:52am 19.6 22.2 18.4 93 0.7 W 2 7 1 4 1011.7 1011.7 0.2
16/01:48am 19.7 22.7 18.5 93 0.7 CALM 0 0 0 0 1011.8 1011.8 0.2
16/01:30am 20.3 23.6 19.1 93 0.8 CALM 0 0 0 0 1011.8 1011.8 0.2
16/01:00am 20.3 23.6 19.0 92 0.8 CALM 0 0 0 0 1012.0 1012.0 0.2
16/12:30am 20.7 24.1 19.4 92 0.8 CALM 0 0 0 0 1012.2 1012.2 0.2
16/12:00am 20.8 23.2 19.6 93 0.8 NE 6 7 3 4 1012.4 1012.4 0.2
 
Date/Time
EST
Temp
°C
App
Temp
°C
Dew
Point
°C
Rel
Hum
%
Delta-T
°C
Wind Press
QNH
hPa
Press
MSL
hPa
Rain since
9am
mm
Dir  Spd
km/h
Gust
km/h
Spd
kts
Gust
kts
15/11:30pm 21.0 24.6 19.8 93 0.8 CALM 0 7 0 4 1012.6 1012.6 0.2
15/11:00pm 21.1 24.5 19.4 90 1.1 CALM 0 2 0 1 1012.6 1012.6 0.2
15/10:36pm 22.1 24.7 20.4 90 1.1 SSE 7 9 4 5 1012.7 1012.7 0.2
15/10:30pm 22.0 24.7 20.3 90 1.1 SSE 6 9 3 5 1012.7 1012.7 0.2
15/10:18pm 21.8 24.3 19.9 89 1.2 SSE 6 7 3 4 1012.9 1012.9 0.2
15/10:00pm 22.4 26.2 20.1 87 1.5 CALM 0 0 0 0 1012.8 1012.8 0.2
15/09:30pm 22.5 26.2 19.9 85 1.7 CALM 0 4 0 2 1012.7 1012.7 0.2
15/09:00pm 22.7 25.6 19.9 84 1.8 SE 4 6 2 3 1012.5 1012.5 0.2
15/08:30pm 22.6 25.1 19.8 84 1.8 S 6 9 3 5 1012.3 1012.3 0.2
15/08:00pm 22.7 24.9 19.7 83 1.9 SW 7 9 4 5 1011.8 1011.8 0.2
15/07:30pm 23.1 25.2 20.1 83 1.9 SW 9 11 5 6 1011.5 1011.5 0.2
15/07:00pm 23.5 27.2 20.0 81 2.3 CALM 0 0 0 0 1010.9 1010.9 0.2
15/06:30pm 23.7 26.3 20.0 80 2.4 N 6 7 3 4 1010.5 1010.5 0.2
15/06:00pm 24.2 26.6 20.1 78 2.7 NNE 7 9 4 5 1010.1 1010.1 0.2
15/05:30pm 25.8 28.1 19.9 70 3.8 E 7 11 4 6 1009.9 1009.9 0.2
15/05:00pm 27.2 29.3 19.0 61 5.3 E 6 9 3 5 1009.7 1009.7 0.2
15/04:30pm 28.0 30.0 19.2 58 5.7 ENE 7 11 4 6 1009.6 1009.6 0.2
15/04:00pm 28.2 29.7 18.9 57 6.0 E 9 13 5 7 1009.4 1009.4 0.2
15/03:30pm 28.2 29.7 18.9 57 6.0 ESE 9 13 5 7 1009.3 1009.3 0.2
15/03:00pm 28.4 30.6 19.6 59 5.7 ESE 7 15 4 8 1009.4 1009.4 0.2
15/02:30pm 28.6 30.7 20.9 63 5.1 ENE 11 15 6 8 1009.2 1009.2 0.2
15/02:00pm 28.2 29.5 19.4 59 5.7 ESE 11 17 6 9 1009.4 1009.4 0.2
15/01:30pm 28.0 29.3 18.4 56 6.1 SE 9 13 5 7 1009.6 1009.6 0.2
15/01:00pm 27.9 30.0 19.4 60 5.5 SE 7 11 4 6 1010.3 1010.3 0.2
15/12:30pm 28.0 30.9 20.6 64 4.9 SSE 6 9 3 5 1010.8 1010.8 0.2
15/12:00pm 27.5 30.7 20.6 66 4.5 SE 4 7 2 4 1011.5 1011.5 0.2
15/11:30am 26.3 28.7 19.7 67 4.3 E 6 9 3 5 1012.1 1012.1 0.2
15/11:00am 25.5 27.7 20.3 73 3.4 E 9 13 5 7 1012.8 1012.8 0.2
15/10:30am 24.4 27.0 20.5 79 2.5 ESE 7 11 4 6 1013.2 1013.2 0.0
15/10:14am 23.8 27.2 20.9 84 1.9 ENE 4 9 2 5 1013.3 1013.3 0.0
15/10:00am 23.1 26.1 21.2 89 1.2 SE 7 11 4 6 1013.5 1013.5 0.0
15/09:30am 21.8 24.2 20.8 94 0.6 SE 9 11 5 6 1013.5 1013.5 0.0
15/09:10am 21.0 23.1 20.2 95 0.5 SE 9 11 5 6 1013.5 1013.5 0.0
15/09:00am 20.7 22.7 20.0 96 0.4 SE 9 11 5 6 1013.4 1013.4 0.0
15/08:52am 20.6 22.6 19.9 96 0.4 SE 9 15 5 8 1013.3 1013.3 0.0
15/08:51am 20.6 22.6 19.9 96 0.4 SSE 9 15 5 8 1013.3 1013.3 0.0
15/08:30am 20.4 22.9 19.9 97 0.3 E 6 9 3 5 1013.2 1013.2 0.0
15/08:26am 20.4 22.7 19.9 97 0.3 E 7 11 4 6 1013.1 1013.1 0.0
15/08:19am 20.3 22.6 19.8 97 0.3 ENE 7 11 4 6 1013.1 1013.1 0.0
15/08:00am 20.2 22.4 19.7 97 0.3 ESE 7 9 4 5 1012.7 1012.7 0.0
15/07:54am 20.2 22.6 19.7 97 0.3 E 6 9 3 5 1012.6 1012.6 0.0
15/07:45am 19.9 22.0 19.4 97 0.3 E 7 9 4 5 1012.5 1012.5 0.0
15/07:44am 19.9 22.0 19.4 97 0.3 ESE 7 9 4 5 1012.5 1012.5 0.0
15/07:30am 19.7 21.7 19.2 97 0.3 ESE 7 11 4 6 1012.5 1012.5 0.0
15/07:00am 19.3 22.1 18.8 97 0.3 W 2 7 1 4 1012.2 1012.2 0.0
15/06:30am 19.1 22.1 18.4 96 0.4 CALM 0 0 0 0 1012.0 1012.0 0.0
15/06:00am 19.1 21.7 18.4 96 0.4 SSW 2 7 1 4 1011.6 1011.6 0.0
15/05:30am 18.6 21.4 17.9 96 0.4 CALM 0 0 0 0 1011.5 1011.5 0.0
15/05:00am 18.2 20.8 17.6 96 0.4 CALM 0 0 0 0 1011.3 1011.3 0.0
15/04:59am 18.3 21.0 17.7 96 0.4 CALM 0 0 0 0 1011.3 1011.3 0.0
15/04:42am 18.8 21.7 18.1 96 0.4 CALM 0 0 0 0 1011.4 1011.4 0.0
15/04:30am 18.5 20.9 17.9 96 0.4 SE 2 7 1 4 1011.2 1011.2 0.0
15/04:18am 18.5 21.3 17.9 96 0.4 CALM 0 6 0 3 1011.1 1011.1 0.0
15/04:11am 18.1 20.6 17.3 95 0.5 CALM 0 0 0 0 1011.1 1011.1 0.0
15/04:07am 18.1 20.2 17.3 95 0.5 SSE 2 6 1 3 1011.1 1011.1 0.0
15/04:00am 18.4 20.7 17.8 96 0.4 SSE 2 6 1 3 1010.9 1010.9 0.0
15/03:30am 18.5 20.9 17.9 96 0.4 SSE 2 7 1 4 1010.5 1010.5 0.0
15/03:26am 18.6 21.0 17.9 96 0.4 SE 2 7 1 4 1010.5 1010.5 0.0
15/03:11am 18.3 20.9 17.5 95 0.5 CALM 0 0 0 0 1010.6 1010.6 0.0
15/03:08am 18.2 20.8 17.4 95 0.5 CALM 0 0 0 0 1010.7 1010.7 0.0
15/03:03am 18.3 20.9 17.5 95 0.5 CALM 0 0 0 0 1010.6 1010.6 0.0
15/03:00am 18.2 20.8 17.4 95 0.5 CALM 0 0 0 0 1010.6 1010.6 0.0
15/02:42am 18.8 21.6 18.0 95 0.5 CALM 0 0 0 0 1010.6 1010.6 0.0
15/02:30am 18.6 21.3 17.8 95 0.5 CALM 0 0 0 0 1010.5 1010.5 0.0
15/02:24am 18.6 21.3 17.8 95 0.5 CALM 0 0 0 0 1010.6 1010.6 0.0
15/02:20am 18.6 21.3 17.8 95 0.5 CALM 0 0 0 0 1010.5 1010.5 0.0
15/02:09am 18.8 21.6 18.0 95 0.5 CALM 0 0 0 0 1010.6 1010.6 0.0
15/02:00am 18.6 21.3 17.8 95 0.5 CALM 0 0 0 0 1010.7 1010.7 0.0
15/01:55am 18.5 21.2 17.7 95 0.5 CALM 0 0 0 0 1010.8 1010.8 0.0
15/01:49am 18.4 21.0 17.4 94 0.6 CALM 0 0 0 0 1010.8 1010.8 0.0
15/01:45am 18.4 21.0 17.4 94 0.6 CALM 0 0 0 0 1010.8 1010.8 0.0
15/01:43am 18.4 21.0 17.4 94 0.6 CALM 0 0 0 0 1010.8 1010.8 0.0
15/01:30am 18.9 21.8 18.1 95 0.5 CALM 0 0 0 0 1010.9 1010.9 0.0
15/01:00am 19.4 22.5 18.6 95 0.5 CALM 0 0 0 0 1010.9 1010.9 0.0
15/12:54am 19.5 22.6 18.7 95 0.5 CALM 0 0 0 0 1011.0 1011.0 0.0
15/12:37am 19.0 21.8 18.0 94 0.6 CALM 0 0 0 0 1011.2 1011.2 0.0
15/12:30am 19.1 22.0 18.1 94 0.6 CALM 0 0 0 0 1011.2 1011.2 0.0
15/12:13am 19.3 22.2 18.3 94 0.6 CALM 0 0 0 0 1011.3 1011.3 0.0
15/12:00am 19.5 22.5 18.5 94 0.6 CALM 0 0 0 0 1011.3 1011.3 0.0
 
Date/Time
EST
Temp
°C
App
Temp
°C
Dew
Point
°C
Rel
Hum
%
Delta-T
°C
Wind Press
QNH
hPa
Press
MSL
hPa
Rain since
9am
mm
Dir  Spd
km/h
Gust
km/h
Spd
kts
Gust
kts
14/11:30pm 19.5 22.5 18.5 94 0.6 CALM 0 0 0 0 1011.4 1011.4 0.0
14/11:00pm 19.8 22.9 18.6 93 0.7 CALM 0 0 0 0 1011.4 1011.4 0.0
14/10:30pm 19.8 22.8 18.5 92 0.8 CALM 0 0 0 0 1011.3 1011.3 0.0
14/10:00pm 20.2 23.5 19.0 93 0.8 CALM 0 0 0 0 1011.3 1011.3 0.0
14/09:30pm 20.5 23.8 19.2 92 0.8 CALM 0 0 0 0 1011.2 1011.2 0.0
14/09:00pm 20.8 24.3 19.5 92 0.8 CALM 0 0 0 0 1011.1 1011.1 0.0
14/08:30pm 20.8 24.3 19.5 92 0.8 CALM 0 0 0 0 1011.1 1011.1 0.0
14/08:00pm 21.2 23.4 19.3 89 1.2 N 6 7 3 4 1010.8 1010.8 0.0
14/07:30pm 21.9 25.0 19.6 87 1.5 N 2 6 1 3 1010.6 1010.6 0.0
14/07:00pm 22.1 23.9 19.6 86 1.6 N 9 11 5 6 1010.5 1010.5 0.0
14/06:30pm 22.3 24.3 20.0 87 1.5 N 9 9 5 5 1010.4 1010.4 0.0
14/06:00pm 22.8 25.1 19.8 83 1.9 N 7 9 4 5 1009.9 1009.9 0.0
14/05:30pm 23.7 25.3 20.0 80 2.4 N 11 13 6 7 1009.5 1009.5 0.0

Other formats

Comma delimited format used in spreadsheet applications
http://www.bom.gov.au/fwo/IDQ60801/IDQ60801.94374.axf

JavaScript Object Notation format (JSON) in row-major order
http://www.bom.gov.au/fwo/IDQ60801/IDQ60801.94374.json

Data quality

Most of these data are generated automatically and are frequently updated. Quality checks on data are not normally performed. It is possible for incorrect values to appear. Refer to information at About Latest Weather Observations and please check the disclaimer before using these data.